createdAt,value
2019-06-07T05:09:02.023Z,2612
2019-06-07T05:10:12.175Z,2540
2019-06-07T05:11:22.104Z,2596
2019-06-07T05:12:34.922Z,2700
2019-06-07T05:13:51.506Z,2840
2019-06-07T05:15:01.639Z,2992
2019-06-07T05:16:11.782Z,3160
2019-06-07T05:17:21.982Z,3344
2019-06-07T05:18:33.567Z,3520
2019-06-07T05:19:51.932Z,3600
2019-06-07T05:21:02.159Z,3560
2019-06-07T05:22:12.812Z,3532
2019-06-07T14:11:54.376Z,48576
2019-06-07T14:13:04.529Z,34048
2019-06-07T14:14:14.775Z,47264
2019-06-07T14:15:28.179Z,49600
2019-06-07T14:16:42.262Z,48064
2019-06-07T14:17:52.425Z,46080
2019-06-07T14:19:02.618Z,46976
2019-06-07T14:20:14.102Z,48672
2019-06-07T14:21:26.555Z,48960
2019-06-07T14:22:38.434Z,47520
2019-06-07T14:23:56.270Z,46144
2019-06-07T14:25:06.425Z,45056
2019-06-07T14:26:16.579Z,43936
2019-06-07T14:27:29.601Z,44864
2019-06-07T14:28:41.532Z,43200
2019-06-07T14:29:51.689Z,44736
2019-06-07T14:31:01.858Z,40544
2019-06-07T14:32:12.037Z,20960
2019-06-07T14:33:26.759Z,39200
2019-06-07T14:34:40.011Z,43168
2019-06-07T14:35:49.905Z,42592
2019-06-07T14:37:00.116Z,42240
2019-06-07T14:38:10.251Z,40640
2019-06-07T14:39:20.506Z,41088
2019-06-07T14:40:31.871Z,41856
2019-06-07T14:41:42.232Z,42016
2019-06-07T14:42:52.390Z,40736
2019-06-07T14:44:02.554Z,39648
2019-06-07T14:45:13.309Z,40704
2019-06-07T14:46:23.551Z,41504
2019-06-07T14:47:36.534Z,40544
2019-06-07T14:48:46.916Z,39808
2019-06-07T14:49:56.809Z,38752
2019-06-07T14:51:06.784Z,39360
2019-06-07T14:52:16.962Z,38368
2019-06-07T14:53:27.379Z,38176
2019-06-07T14:54:44.226Z,37280
2019-06-07T14:55:54.413Z,37152
2019-06-07T14:57:08.076Z,38848
2019-06-07T14:58:18.227Z,37472
2019-06-07T14:59:28.726Z,36352
2019-06-07T15:00:41.846Z,31872
2019-06-07T15:01:52.010Z,19360
2019-06-07T15:03:02.225Z,11804
2019-06-07T15:04:12.410Z,10520
2019-06-07T15:05:22.570Z,10028
2019-06-07T15:06:37.349Z,10184
2019-06-07T15:07:48.158Z,9820
2019-06-07T15:08:58.951Z,9024
2019-06-07T15:10:09.163Z,8344
2019-06-07T15:11:19.083Z,8540
2019-06-07T15:12:35.709Z,8276
2019-06-07T15:13:47.672Z,8228
2019-06-07T15:14:57.847Z,8248
2019-06-07T15:16:07.985Z,8376
2019-06-07T15:17:18.153Z,8532
2019-06-07T15:18:29.453Z,8440
2019-06-07T15:19:41.839Z,8252
2019-06-07T15:20:51.852Z,7880
2019-06-07T15:22:01.747Z,7728
2019-06-07T15:23:11.575Z,7592
2019-06-07T15:24:21.744Z,7444
2019-06-07T15:25:33.120Z,7660
2019-06-07T15:26:43.728Z,7532
2019-06-07T15:27:53.856Z,7536
2019-06-07T15:29:04.057Z,7468
2019-06-07T15:30:18.106Z,7384
2019-06-07T15:31:29.789Z,7852
2019-06-07T15:32:44.346Z,8072
2019-06-07T15:33:54.506Z,8724
2019-06-07T15:35:04.715Z,9180
2019-06-07T15:36:14.616Z,9300
2019-06-07T15:37:24.782Z,9444
2019-06-07T15:38:39.650Z,9404
2019-06-07T15:39:49.840Z,8692
2019-06-07T15:40:59.989Z,8536
2019-06-07T15:42:10.393Z,7988
2019-06-07T15:43:20.304Z,7768
2019-06-07T15:44:31.509Z,8188
2019-06-07T15:45:42.766Z,8276
2019-06-07T15:46:53.017Z,7464
2019-06-07T15:48:03.159Z,6484
2019-06-07T15:49:13.317Z,6120
2019-06-07T15:50:23.455Z,5964
2019-06-07T15:51:40.810Z,5880
2019-06-07T15:52:51.221Z,5756
2019-06-07T15:54:01.372Z,5700
2019-06-07T15:55:11.555Z,5648
2019-06-07T15:56:21.717Z,5540
2019-06-07T15:57:35.085Z,5492
2019-06-07T15:58:48.616Z,5468
2019-06-07T15:59:58.877Z,5416
2019-06-07T16:01:09.282Z,5408
2019-06-07T16:02:19.667Z,5364
2019-06-07T16:03:29.814Z,5352
2019-06-07T16:04:46.871Z,5312
2019-06-07T16:05:58.874Z,5268
2019-06-07T16:07:09.033Z,5200
2019-06-07T16:08:19.189Z,5176
2019-06-07T16:09:29.331Z,5128
2019-06-07T16:10:42.904Z,5044
2019-06-07T16:11:53.365Z,5044
2019-06-07T16:13:08.105Z,5060
2019-06-07T16:14:18.255Z,5024
2019-06-07T16:15:28.423Z,4956
2019-06-07T16:16:41.470Z,4844
2019-06-07T16:17:51.638Z,4688
2019-06-07T16:19:01.596Z,4632
2019-06-07T16:20:11.814Z,4628
2019-06-07T16:21:21.885Z,4628
2019-06-07T16:22:33.392Z,4632
2019-06-07T16:23:46.709Z,4576
2019-06-07T16:24:57.085Z,4420
2019-06-07T16:26:06.991Z,4344
2019-06-07T16:27:17.194Z,4332
2019-06-07T16:28:27.454Z,4308
2019-06-07T16:29:38.897Z,4276
2019-06-07T16:30:50.527Z,4248
2019-06-07T16:32:00.678Z,4228
2019-06-07T16:33:10.862Z,4172
2019-06-07T16:34:21.020Z,4100
2019-06-07T16:35:31.265Z,3984
2019-06-07T16:36:44.707Z,3856
2019-06-07T16:37:59.497Z,3784
2019-06-07T16:39:09.793Z,3748
2019-06-07T16:40:19.979Z,3748
2019-06-07T16:41:29.913Z,3740
2019-06-07T16:42:42.701Z,3732
2019-06-07T16:43:53.858Z,3700
2019-06-07T16:45:04.038Z,3652
2019-06-07T16:46:14.225Z,3628
2019-06-07T16:47:24.444Z,3588
2019-06-07T16:48:34.637Z,3556
2019-06-07T16:49:47.523Z,3512
2019-06-07T16:50:57.696Z,3468
2019-06-07T16:52:07.903Z,3380
2019-06-07T16:53:17.812Z,3324
2019-06-07T16:54:27.988Z,3300
2019-06-07T16:55:38.927Z,3292
2019-06-07T16:56:56.270Z,3252
2019-06-07T16:58:06.404Z,3220
2019-06-07T16:59:16.561Z,3192
2019-06-07T17:00:26.831Z,3164
2019-06-07T17:01:37.079Z,3132
2019-06-07T17:02:49.837Z,3096
2019-06-07T17:03:59.759Z,3076
2019-06-07T17:05:10.154Z,3040
2019-06-07T17:06:20.307Z,2996
2019-06-07T17:07:30.438Z,2944
2019-06-07T17:08:42.021Z,2892
2019-06-07T17:09:54.605Z,2844
2019-06-07T17:11:04.636Z,2796
2019-06-07T17:12:14.798Z,2768
2019-06-07T17:13:40.598Z,2720
2019-06-07T17:14:51.883Z,2676
2019-06-07T17:16:02.107Z,2640
2019-06-07T17:17:12.269Z,2616
2019-06-07T17:18:22.466Z,2608
2019-06-07T17:19:32.661Z,2612
2019-06-07T17:20:45.204Z,2592
2019-06-07T17:21:57.066Z,2584
2019-06-07T17:23:07.366Z,2564
2019-06-07T17:24:17.522Z,2552
2019-06-07T17:25:27.650Z,2532
2019-06-07T17:26:37.806Z,2520
2019-06-07T17:27:52.701Z,2496
2019-06-07T17:29:02.834Z,2480
2019-06-07T17:30:12.992Z,2460
2019-06-07T17:31:23.149Z,2444
2019-06-07T17:32:57.406Z,2408
2019-06-07T17:34:09.133Z,2380
2019-06-07T17:35:19.329Z,2356
2019-06-07T17:36:29.495Z,2340
2019-06-07T17:37:41.543Z,2324
2019-06-07T17:38:55.723Z,2304
2019-06-07T17:40:05.878Z,2288
2019-06-07T17:41:15.639Z,2260
2019-06-07T17:42:25.838Z,2240
2019-06-07T17:43:58.377Z,2196
2019-06-07T17:45:09.928Z,2160
2019-06-07T17:46:20.087Z,2128
2019-06-07T17:47:30.241Z,2100
2019-06-07T17:48:41.417Z,2068
2019-06-07T17:49:52.836Z,2044
2019-06-07T17:51:03.020Z,2020
2019-06-07T17:52:13.207Z,1996
2019-06-07T17:53:23.336Z,1968
2019-06-07T17:54:33.494Z,1952
2019-06-07T17:55:44.534Z,1932
2019-06-07T17:56:57.955Z,1912
2019-06-07T17:58:08.108Z,1884
2019-06-07T17:59:18.285Z,1860
2019-06-07T18:00:38.494Z,1836
2019-06-07T18:02:18.124Z,1808
2019-06-07T18:03:28.298Z,1788
2019-06-07T18:04:38.425Z,1760
2019-06-07T18:05:51.264Z,1736
2019-06-07T18:07:01.532Z,1712
2019-06-07T18:08:11.720Z,1688
2019-06-07T18:09:21.884Z,1664
2019-06-07T18:10:32.029Z,1644
2019-06-07T18:11:42.193Z,1612
2019-06-07T18:12:55.669Z,1580
2019-06-07T18:14:17.729Z,1548
2019-06-07T18:15:27.932Z,1524
2019-06-07T18:16:37.868Z,1496
2019-06-07T18:17:50.388Z,1472
2019-06-07T18:19:00.794Z,1448
2019-06-07T18:20:10.968Z,1428
2019-06-07T18:21:21.127Z,1408
2019-06-07T18:22:31.300Z,1388
2019-06-07T18:23:41.457Z,1368
2019-06-07T18:24:53.026Z,1340
2019-06-07T18:26:03.746Z,1316
2019-06-07T18:27:14.785Z,1292
2019-06-07T18:28:25.162Z,1272
2019-06-07T18:29:35.370Z,1244
2019-06-07T18:30:46.399Z,1216
2019-06-07T18:32:00.195Z,1184
2019-06-07T18:33:10.514Z,1156
2019-06-07T18:34:20.675Z,1128
2019-06-07T18:35:30.844Z,1104
2019-06-07T18:36:41.015Z,1072
2019-06-07T18:37:52.872Z,1048
2019-06-07T18:39:04.126Z,1012
2019-06-07T18:40:14.336Z,984
2019-06-07T18:41:24.515Z,956
2019-06-07T18:42:34.686Z,928
2019-06-07T18:43:44.845Z,908
2019-06-07T18:44:56.266Z,880
2019-06-07T18:46:07.301Z,856
2019-06-07T18:47:17.459Z,828
2019-06-07T18:48:27.623Z,804
2019-06-07T18:49:41.057Z,776
2019-06-07T18:50:52.536Z,752
2019-06-07T18:52:03.066Z,724
2019-06-07T18:53:13.228Z,704
2019-06-07T18:54:23.442Z,676
2019-06-07T18:55:33.649Z,648
2019-06-07T18:56:43.833Z,616
2019-06-07T18:57:58.422Z,588
2019-06-07T18:59:08.640Z,560
2019-06-07T19:00:18.866Z,532
2019-06-07T19:01:29.069Z,504
2019-06-07T19:02:39.212Z,484
2019-06-07T19:03:53.723Z,456
2019-06-07T19:05:05.684Z,436
2019-06-07T19:06:15.897Z,412
2019-06-07T19:07:26.133Z,392
2019-06-07T19:08:36.422Z,372
2019-06-07T19:09:46.563Z,352
2019-06-07T19:10:59.290Z,332
2019-06-07T19:12:09.486Z,316
2019-06-07T19:13:19.442Z,296
2019-06-07T19:14:43.847Z,276
2019-06-07T19:15:55.348Z,260
2019-06-07T19:17:05.629Z,244
2019-06-07T19:18:15.793Z,232
2019-06-07T19:19:25.763Z,216
2019-06-07T19:20:35.683Z,200
2019-06-07T19:21:45.907Z,188
2019-06-07T19:22:58.870Z,180
2019-06-07T19:24:09.528Z,164
2019-06-07T19:25:19.865Z,152
2019-06-07T19:26:30.044Z,144
2019-06-07T19:27:40.624Z,132
2019-06-07T19:28:50.816Z,116
2019-06-07T19:30:03.436Z,108
2019-06-07T19:31:13.612Z,100
2019-06-07T19:32:23.794Z,88
2019-06-07T19:33:46.222Z,84
2019-06-07T19:35:00.056Z,72
2019-06-07T19:36:09.742Z,68
2019-06-07T19:37:19.890Z,60
2019-06-07T19:38:29.792Z,56
2019-06-07T19:39:39.712Z,52
2019-06-07T19:40:49.879Z,44
2019-06-07T19:42:02.523Z,40
2019-06-07T19:43:12.674Z,36
2019-06-07T19:44:22.839Z,32
2019-06-07T19:45:37.899Z,28
2019-06-07T19:46:48.119Z,24
2019-06-07T19:48:01.096Z,24
2019-06-07T19:49:11.281Z,16
2019-06-07T19:50:21.504Z,16
2019-06-07T19:51:31.669Z,16
2019-06-07T19:52:41.846Z,12
2019-06-07T19:53:52.909Z,12
2019-06-07T19:55:12.440Z,8
2019-06-07T19:56:22.380Z,8
2019-06-07T19:57:32.536Z,4
2019-06-07T19:58:42.960Z,8
2019-06-07T19:59:55.154Z,8
2019-06-07T20:01:07.342Z,4
2019-06-07T20:02:17.515Z,4
2019-06-07T20:03:27.693Z,4
2019-06-07T20:04:37.845Z,4
2019-06-07T20:05:48.049Z,4
2019-06-07T20:07:00.211Z,0
2019-06-07T20:08:12.853Z,0
2019-06-07T20:09:23.018Z,4
2019-06-07T20:10:33.240Z,4
2019-06-07T20:11:43.463Z,4
2019-06-07T20:12:54.495Z,0
2019-06-07T20:14:05.841Z,0
2019-06-07T20:15:34.940Z,0
2019-06-07T20:16:44.872Z,0
2019-06-07T20:17:55.207Z,0
2019-06-07T20:19:08.941Z,0
2019-06-07T20:20:19.307Z,0
2019-06-07T20:21:31.820Z,0
2019-06-07T20:22:42.002Z,0
2019-06-07T20:23:52.171Z,0
2019-06-07T20:25:04.844Z,0
2019-06-07T20:26:16.195Z,0
2019-06-07T20:27:26.348Z,0
2019-06-07T20:28:36.521Z,0
2019-06-07T20:29:46.693Z,0
2019-06-07T20:31:01.811Z,0
2019-06-07T20:32:13.835Z,0
2019-06-07T20:33:24.043Z,0
2019-06-07T20:34:34.239Z,0
2019-06-07T20:35:43.897Z,0
2019-06-07T20:36:53.823Z,0
2019-06-07T20:38:09.415Z,0
2019-06-07T20:39:19.679Z,0
2019-06-07T20:40:32.192Z,0
2019-06-07T20:41:42.376Z,0
2019-06-07T20:42:52.191Z,0
2019-06-07T20:44:04.051Z,0
2019-06-07T20:45:15.368Z,0
2019-06-07T20:46:40.372Z,0
2019-06-07T20:47:50.531Z,0
2019-06-07T20:49:02.114Z,0
2019-06-07T20:50:16.000Z,0
2019-06-07T20:51:26.252Z,0
2019-06-07T20:52:36.487Z,0
2019-06-07T20:53:47.106Z,0
2019-06-07T20:54:58.420Z,0
2019-06-07T20:56:11.503Z,0
2019-06-07T20:57:21.761Z,0
2019-06-07T20:58:31.920Z,0
2019-06-07T20:59:42.103Z,0
2019-06-07T21:00:52.256Z,0
2019-06-07T21:02:05.028Z,0
2019-06-07T21:03:16.861Z,0
2019-06-07T21:04:27.016Z,0
2019-06-07T21:05:37.178Z,0
2019-06-07T21:06:47.341Z,0
2019-06-07T21:07:57.655Z,0
2019-06-07T21:09:12.208Z,0
2019-06-07T21:10:22.478Z,0
2019-06-07T21:11:32.650Z,0
2019-06-07T21:12:42.806Z,0
2019-06-07T21:13:53.029Z,0
2019-06-07T21:15:12.535Z,0
2019-06-07T21:16:23.288Z,0
2019-06-07T21:17:33.422Z,0
2019-06-07T21:18:43.578Z,0
2019-06-07T21:19:54.292Z,0
2019-06-07T21:21:06.347Z,0
2019-06-07T21:22:16.317Z,0
2019-06-07T21:23:26.472Z,0
2019-06-07T21:24:36.638Z,0
2019-06-07T21:25:46.543Z,0
2019-06-07T21:27:01.619Z,0
2019-06-07T21:28:14.317Z,0
2019-06-07T21:29:24.567Z,0
2019-06-07T21:30:34.736Z,0
2019-06-07T21:31:44.895Z,0
2019-06-07T21:32:55.061Z,0
2019-06-07T21:34:13.957Z,0
2019-06-07T21:35:24.261Z,0
2019-06-07T21:36:34.381Z,0
2019-06-07T21:37:44.539Z,0
2019-06-07T21:38:54.919Z,0
2019-06-07T21:40:08.017Z,0
2019-06-07T21:41:19.905Z,0
2019-06-07T21:42:30.021Z,0
2019-06-07T21:43:40.193Z,0
2019-06-07T21:44:50.421Z,0
2019-06-07T21:46:23.056Z,0
2019-06-07T21:47:33.199Z,0
2019-06-07T21:48:43.353Z,0
2019-06-07T21:49:53.476Z,0
2019-06-07T21:51:04.658Z,0
2019-06-07T21:52:15.994Z,0
2019-06-07T21:53:26.183Z,0
2019-06-07T21:54:36.358Z,0
2019-06-07T21:55:46.509Z,0
2019-06-07T21:56:56.392Z,0
2019-06-07T21:58:09.427Z,0
2019-06-07T21:59:20.671Z,0
2019-06-07T22:00:30.815Z,0
2019-06-07T22:01:41.062Z,0
2019-06-07T22:02:51.218Z,0
2019-06-07T22:04:01.358Z,0
2019-06-07T22:05:14.510Z,0
2019-06-07T22:06:24.713Z,0
2019-06-07T22:07:34.486Z,0
2019-06-07T22:08:44.673Z,0
2019-06-07T22:09:55.104Z,0
2019-06-07T22:11:06.250Z,0
2019-06-07T22:12:19.286Z,0
2019-06-07T22:13:29.443Z,0
2019-06-07T22:14:39.568Z,0
2019-06-07T22:15:49.724Z,0
2019-06-07T22:16:59.847Z,0
2019-06-07T22:18:14.561Z,0
2019-06-07T22:19:24.505Z,0
2019-06-07T22:20:34.651Z,0
2019-06-07T22:21:44.798Z,0
2019-06-07T22:23:11.294Z,0
2019-06-07T22:24:22.622Z,0
2019-06-07T22:25:32.815Z,0
2019-06-07T22:26:42.954Z,0
2019-06-07T22:29:08.817Z,0
2019-06-07T22:30:28.699Z,0
2019-06-07T22:32:53.700Z,0
2019-06-07T22:36:31.209Z,0
2019-06-07T22:37:41.354Z,0
2019-06-07T22:38:51.565Z,0
2019-06-07T22:40:01.695Z,0
2019-06-07T22:41:12.615Z,0
2019-06-07T22:42:24.236Z,0
2019-06-07T22:43:34.384Z,0
2019-06-07T22:44:47.294Z,0
2019-06-07T22:45:57.708Z,0
2019-06-07T22:47:08.047Z,0
2019-06-07T22:48:19.937Z,0
2019-06-07T22:49:30.211Z,0
2019-06-07T22:50:40.371Z,0
2019-06-07T22:51:50.572Z,0
2019-06-07T22:53:17.931Z,0
2019-06-07T22:54:28.081Z,0
2019-06-07T22:55:38.205Z,0
2019-06-07T22:56:48.338Z,0
2019-06-07T22:57:58.532Z,0
2019-06-07T22:59:12.262Z,0
2019-06-07T23:00:28.278Z,0
2019-06-07T23:01:38.406Z,0
2019-06-07T23:02:48.185Z,0
2019-06-07T23:03:58.314Z,0
2019-06-07T23:05:14.703Z,0
2019-06-07T23:06:25.962Z,0
2019-06-07T23:07:36.099Z,0
2019-06-07T23:08:46.223Z,0
2019-06-07T23:09:55.991Z,0
2019-06-07T23:11:06.124Z,0
2019-06-07T23:12:17.952Z,0
2019-06-07T23:13:28.065Z,0
2019-06-07T23:14:38.256Z,0
2019-06-07T23:15:48.446Z,0
2019-06-07T23:17:03.073Z,0
2019-06-07T23:18:14.205Z,0
2019-06-07T23:19:25.368Z,0
2019-06-07T23:20:35.489Z,0
2019-06-07T23:21:45.721Z,0
2019-06-07T23:22:55.832Z,0
2019-06-07T23:24:05.988Z,0
2019-06-07T23:25:24.452Z,0
2019-06-07T23:26:34.655Z,0
2019-06-07T23:27:44.442Z,0
2019-06-07T23:28:54.564Z,0
2019-06-07T23:30:12.314Z,0
2019-06-07T23:31:23.825Z,0
2019-06-07T23:32:33.965Z,0
2019-06-07T23:33:44.078Z,0
2019-06-07T23:34:54.201Z,0
2019-06-07T23:36:04.356Z,0
2019-06-07T23:37:17.008Z,0
2019-06-07T23:38:28.467Z,0
2019-06-07T23:39:38.603Z,0
2019-06-07T23:40:48.742Z,0
2019-06-07T23:41:58.862Z,0
2019-06-07T23:43:08.971Z,0
2019-06-07T23:44:21.723Z,0
2019-06-07T23:45:31.835Z,0
2019-06-07T23:46:41.942Z,0
2019-06-07T23:47:51.728Z,0
2019-06-07T23:49:01.852Z,0
2019-06-07T23:50:13.531Z,0
2019-06-07T23:51:25.040Z,0
2019-06-07T23:52:35.161Z,0
2019-06-07T23:53:45.028Z,0
2019-06-07T23:54:55.134Z,0
2019-06-07T23:56:05.248Z,0
2019-06-07T23:57:19.173Z,0
2019-06-07T23:58:30.499Z,0
2019-06-07T23:59:40.619Z,0
